sensor_id;sensor_type;location;lat;lon;timestamp;pressure;altitude;pressure_sealevel;temperature;humidity
63395;BME280;49531;-34.520;150.798;2023-07-30T00:01:01;101049.69;;;21.28;47.98
63395;BME280;49531;-34.520;150.798;2023-07-30T00:03:28;101048.91;;;21.33;47.87
63395;BME280;49531;-34.520;150.798;2023-07-30T00:05:56;101044.03;;;21.35;47.73
63395;BME280;49531;-34.520;150.798;2023-07-30T00:08:23;101038.66;;;21.40;47.78
63395;BME280;49531;-34.520;150.798;2023-07-30T00:10:50;101044.44;;;21.48;47.41
63395;BME280;49531;-34.520;150.798;2023-07-30T00:13:20;101035.53;;;21.53;47.37
63395;BME280;49531;-34.520;150.798;2023-07-30T00:15:48;101038.53;;;21.56;47.38
63395;BME280;49531;-34.520;150.798;2023-07-30T00:18:15;101024.69;;;21.58;47.35
63395;BME280;49531;-34.520;150.798;2023-07-30T00:20:43;101025.81;;;21.67;47.23
63395;BME280;49531;-34.520;150.798;2023-07-30T00:23:10;101023.72;;;21.74;46.56
63395;BME280;49531;-34.520;150.798;2023-07-30T00:25:37;101026.19;;;21.81;46.69
63395;BME280;49531;-34.520;150.798;2023-07-30T00:28:04;101009.38;;;21.84;46.74
63395;BME280;49531;-34.520;150.798;2023-07-30T00:30:31;101020.03;;;21.90;46.36
63395;BME280;49531;-34.520;150.798;2023-07-30T00:32:58;101009.19;;;21.95;46.01
63395;BME280;49531;-34.520;150.798;2023-07-30T00:35:25;101006.75;;;21.99;46.19
63395;BME280;49531;-34.520;150.798;2023-07-30T00:37:52;101001.03;;;22.01;46.17
63395;BME280;49531;-34.520;150.798;2023-07-30T00:40:19;100990.19;;;22.06;45.64
63395;BME280;49531;-34.520;150.798;2023-07-30T00:42:46;100992.91;;;22.06;45.80
63395;BME280;49531;-34.520;150.798;2023-07-30T00:45:13;100991.06;;;22.11;45.43
63395;BME280;49531;-34.520;150.798;2023-07-30T00:47:41;100985.38;;;22.18;45.67
63395;BME280;49531;-34.520;150.798;2023-07-30T00:50:08;100980.75;;;22.18;45.49
63395;BME280;49531;-34.520;150.798;2023-07-30T00:52:37;100975.88;;;22.25;45.52
63395;BME280;49531;-34.520;150.798;2023-07-30T00:55:06;100978.34;;;22.27;45.59
63395;BME280;49531;-34.520;150.798;2023-07-30T00:57:36;100973.75;;;22.33;45.17
63395;BME280;49531;-34.520;150.798;2023-07-30T01:00:04;100967.50;;;22.37;44.87
63395;BME280;49531;-34.520;150.798;2023-07-30T01:02:35;100956.06;;;22.35;44.97
63395;BME280;49531;-34.520;150.798;2023-07-30T01:05:03;100947.63;;;22.37;44.98
63395;BME280;49531;-34.520;150.798;2023-07-30T01:07:31;100931.84;;;22.39;45.02
63395;BME280;49531;-34.520;150.798;2023-07-30T01:09:59;100933.22;;;22.51;44.35
63395;BME280;49531;-34.520;150.798;2023-07-30T01:12:29;100930.81;;;22.60;44.46
63395;BME280;49531;-34.520;150.798;2023-07-30T01:14:58;100922.91;;;22.58;44.21
63395;BME280;49531;-34.520;150.798;2023-07-30T01:17:26;100912.56;;;22.55;44.06
63395;BME280;49531;-34.520;150.798;2023-07-30T01:19:53;100918.03;;;22.66;43.94
63395;BME280;49531;-34.520;150.798;2023-07-30T01:22:23;100922.13;;;22.73;43.51
63395;BME280;49531;-34.520;150.798;2023-07-30T01:24:50;100910.16;;;22.74;42.93
63395;BME280;49531;-34.520;150.798;2023-07-30T01:27:28;100895.16;;;22.72;42.83
63395;BME280;49531;-34.520;150.798;2023-07-30T01:30:10;100896.81;;;22.78;42.65
63395;BME280;49531;-34.520;150.798;2023-07-30T01:32:41;100888.09;;;22.81;42.62
63395;BME280;49531;-34.520;150.798;2023-07-30T01:35:11;100875.56;;;22.80;42.48
63395;BME280;49531;-34.520;150.798;2023-07-30T01:37:41;100872.84;;;22.95;42.25
63395;BME280;49531;-34.520;150.798;2023-07-30T01:40:13;100863.88;;;23.00;42.00
63395;BME280;49531;-34.520;150.798;2023-07-30T01:42:42;100855.41;;;23.01;41.99
63395;BME280;49531;-34.520;150.798;2023-07-30T01:45:10;100863.59;;;23.06;42.13
63395;BME280;49531;-34.520;150.798;2023-07-30T01:47:37;100848.88;;;23.02;42.24
63395;BME280;49531;-34.520;150.798;2023-07-30T01:50:04;100854.88;;;23.04;41.86
63395;BME280;49531;-34.520;150.798;2023-07-30T01:52:32;100851.59;;;23.12;41.79
63395;BME280;49531;-34.520;150.798;2023-07-30T01:54:59;100849.97;;;23.16;41.32
63395;BME280;49531;-34.520;150.798;2023-07-30T01:57:27;100831.44;;;23.18;41.32
63395;BME280;49531;-34.520;150.798;2023-07-30T01:59:54;100830.34;;;23.14;41.31
63395;BME280;49531;-34.520;150.798;2023-07-30T02:02:21;100829.25;;;23.15;41.01
63395;BME280;49531;-34.520;150.798;2023-07-30T02:04:48;100826.78;;;23.19;40.81
63395;BME280;49531;-34.520;150.798;2023-07-30T02:07:15;100816.41;;;23.26;40.29
63395;BME280;49531;-34.520;150.798;2023-07-30T02:09:43;100818.31;;;23.25;40.75
63395;BME280;49531;-34.520;150.798;2023-07-30T02:12:10;100811.78;;;23.26;40.16
63395;BME280;49531;-34.520;150.798;2023-07-30T02:14:37;100800.59;;;23.28;39.56
63395;BME280;49531;-34.520;150.798;2023-07-30T02:17:04;100793.50;;;23.32;39.33
63395;BME280;49531;-34.520;150.798;2023-07-30T02:19:31;100790.78;;;23.32;39.29
63395;BME280;49531;-34.520;150.798;2023-07-30T02:21:58;100788.03;;;23.37;38.62
63395;BME280;49531;-34.520;150.798;2023-07-30T02:24:29;100793.75;;;23.41;39.25
63395;BME280;49531;-34.520;150.798;2023-07-30T02:26:56;100790.19;;;23.40;39.33
63395;BME280;49531;-34.520;150.798;2023-07-30T02:29:23;100788.03;;;23.37;39.32
63395;BME280;49531;-34.520;150.798;2023-07-30T02:31:50;100775.78;;;23.35;39.62
63395;BME280;49531;-34.520;150.798;2023-07-30T02:34:17;100779.31;;;23.35;39.66
63395;BME280;49531;-34.520;150.798;2023-07-30T02:36:45;100776.03;;;23.38;39.66
63395;BME280;49531;-34.520;150.798;2023-07-30T02:39:13;100774.69;;;23.36;39.41
63395;BME280;49531;-34.520;150.798;2023-07-30T02:41:40;100772.75;;;23.41;39.40
63395;BME280;49531;-34.520;150.798;2023-07-30T02:44:07;100756.69;;;23.35;39.09
63395;BME280;49531;-34.520;150.798;2023-07-30T02:46:34;100751.78;;;23.37;39.42
63395;BME280;49531;-34.520;150.798;2023-07-30T02:49:01;100747.41;;;23.36;39.30
63395;BME280;49531;-34.520;150.798;2023-07-30T02:51:28;100744.16;;;23.34;39.43
63395;BME280;49531;-34.520;150.798;2023-07-30T02:53:58;100742.78;;;23.36;39.14
63395;BME280;49531;-34.520;150.798;2023-07-30T02:56:25;100735.16;;;23.38;39.06
63395;BME280;49531;-34.520;150.798;2023-07-30T02:58:53;100723.97;;;23.35;39.43
63395;BME280;49531;-34.520;150.798;2023-07-30T03:01:20;100720.44;;;23.34;38.42
63395;BME280;49531;-34.520;150.798;2023-07-30T03:03:47;100722.06;;;23.40;38.00
63395;BME280;49531;-34.520;150.798;2023-07-30T03:06:17;100734.28;;;23.48;37.13
63395;BME280;49531;-34.520;150.798;2023-07-30T03:08:44;100723.94;;;23.55;37.34
63395;BME280;49531;-34.520;150.798;2023-07-30T03:11:11;100735.56;;;23.66;37.29
63395;BME280;49531;-34.520;150.798;2023-07-30T03:13:39;100727.94;;;23.68;36.62
63395;BME280;49531;-34.520;150.798;2023-07-30T03:16:07;100723.84;;;23.65;36.98
63395;BME280;49531;-34.520;150.798;2023-07-30T03:18:34;100710.97;;;23.76;36.54
63395;BME280;49531;-34.520;150.798;2023-07-30T03:21:01;100715.59;;;23.80;36.72
63395;BME280;49531;-34.520;150.798;2023-07-30T03:23:28;100706.31;;;23.81;36.24
63395;BME280;49531;-34.520;150.798;2023-07-30T03:25:55;100699.22;;;23.80;35.89
63395;BME280;49531;-34.520;150.798;2023-07-30T03:28:22;100707.66;;;23.84;36.30
63395;BME280;49531;-34.520;150.798;2023-07-30T03:30:50;100700.03;;;23.81;35.99
63395;BME280;49531;-34.520;150.798;2023-07-30T03:33:17;100708.75;;;23.83;35.81
63395;BME280;49531;-34.520;150.798;2023-07-30T03:35:44;100712.28;;;23.88;35.19
63395;BME280;49531;-34.520;150.798;2023-07-30T03:38:11;100702.44;;;23.87;34.61
63395;BME280;49531;-34.520;150.798;2023-07-30T03:40:41;100707.06;;;23.92;35.15
63395;BME280;49531;-34.520;150.798;2023-07-30T03:43:08;100685.78;;;23.94;35.22
63395;BME280;49531;-34.520;150.798;2023-07-30T03:45:35;100688.50;;;23.94;35.38
63395;BME280;49531;-34.520;150.798;2023-07-30T03:48:02;100683.63;;;23.86;34.78
63395;BME280;49531;-34.520;150.798;2023-07-30T03:50:29;100687.66;;;23.99;34.97
63395;BME280;49531;-34.520;150.798;2023-07-30T03:52:57;100682.94;;;24.04;35.07
63395;BME280;49531;-34.520;150.798;2023-07-30T03:55:25;100677.47;;;24.04;35.18
63395;BME280;49531;-34.520;150.798;2023-07-30T03:57:52;100690.31;;;24.04;35.39
63395;BME280;49531;-34.520;150.798;2023-07-30T04:00:19;100689.22;;;24.05;35.18
63395;BME280;49531;-34.520;150.798;2023-07-30T04:02:46;100677.47;;;24.04;34.50
63395;BME280;49531;-34.520;150.798;2023-07-30T04:05:13;100683.19;;;24.08;34.73
63395;BME280;49531;-34.520;150.798;2023-07-30T04:07:40;100675.13;;;23.92;34.13
63395;BME280;49531;-34.520;150.798;2023-07-30T04:10:08;100674.50;;;24.01;34.37
63395;BME280;49531;-34.520;150.798;2023-07-30T04:12:35;100681.56;;;24.07;34.27
63395;BME280;49531;-34.520;150.798;2023-07-30T04:15:02;100681.56;;;24.07;34.45
63395;BME280;49531;-34.520;150.798;2023-07-30T04:17:30;100677.19;;;24.06;34.44
63395;BME280;49531;-34.520;150.798;2023-07-30T04:19:57;100677.72;;;24.08;34.29
63395;BME280;49531;-34.520;150.798;2023-07-30T04:22:25;100675.53;;;24.10;34.25
63395;BME280;49531;-34.520;150.798;2023-07-30T04:24:52;100667.13;;;24.01;34.61
63395;BME280;49531;-34.520;150.798;2023-07-30T04:27:19;100681.31;;;24.03;33.97
63395;BME280;49531;-34.520;150.798;2023-07-30T04:29:46;100670.97;;;24.00;33.91
63395;BME280;49531;-34.520;150.798;2023-07-30T04:32:14;100689.22;;;24.05;33.90
63395;BME280;49531;-34.520;150.798;2023-07-30T04:34:41;100692.19;;;24.08;33.31
63395;BME280;49531;-34.520;150.798;2023-07-30T04:37:08;100674.47;;;24.06;31.78
63395;BME280;49531;-34.520;150.798;2023-07-30T04:39:36;100682.13;;;24.04;32.05
63395;BME280;49531;-34.520;150.798;2023-07-30T04:42:04;100671.84;;;23.96;32.16
63395;BME280;49531;-34.520;150.798;2023-07-30T04:44:31;100666.41;;;23.90;32.01
63395;BME280;49531;-34.520;150.798;2023-07-30T04:46:58;100667.50;;;23.94;32.51
63395;BME280;49531;-34.520;150.798;2023-07-30T04:49:25;100674.31;;;23.92;32.06
63395;BME280;49531;-34.520;150.798;2023-07-30T04:51:52;100668.59;;;23.93;32.39
63395;BME280;49531;-34.520;150.798;2023-07-30T04:54:19;100682.66;;;24.06;32.52
63395;BME280;49531;-34.520;150.798;2023-07-30T04:56:47;100685.41;;;24.01;32.27
63395;BME280;49531;-34.520;150.798;2023-07-30T04:59:14;100687.69;;;23.93;32.41
63395;BME280;49531;-34.520;150.798;2023-07-30T05:01:41;100688.50;;;23.94;32.66
63395;BME280;49531;-34.520;150.798;2023-07-30T05:04:08;100695.31;;;23.97;32.36
63395;BME280;49531;-34.520;150.798;2023-07-30T05:06:36;100690.13;;;23.95;32.51
63395;BME280;49531;-34.520;150.798;2023-07-30T05:09:03;100693.13;;;23.93;32.00
63395;BME280;49531;-34.520;150.798;2023-07-30T05:11:30;100687.41;;;23.95;32.35
63395;BME280;49531;-34.520;150.798;2023-07-30T05:13:57;100683.84;;;23.94;32.10
63395;BME280;49531;-34.520;150.798;2023-07-30T05:16:24;100691.50;;;23.92;32.92
63395;BME280;49531;-34.520;150.798;2023-07-30T05:18:51;100689.31;;;23.94;32.64
63395;BME280;49531;-34.520;150.798;2023-07-30T05:21:18;100693.38;;;23.97;32.36
63395;BME280;49531;-34.520;150.798;2023-07-30T05:23:45;100689.84;;;23.97;32.78
63395;BME280;49531;-34.520;150.798;2023-07-30T05:26:13;100683.31;;;23.92;33.26
63395;BME280;49531;-34.520;150.798;2023-07-30T05:28:40;100692.03;;;23.94;33.17
63395;BME280;49531;-34.520;150.798;2023-07-30T05:31:07;100683.31;;;23.92;32.94
63395;BME280;49531;-34.520;150.798;2023-07-30T05:33:34;100679.81;;;23.87;32.49
63395;BME280;49531;-34.520;150.798;2023-07-30T05:36:01;100675.72;;;23.89;32.89
63395;BME280;49531;-34.520;150.798;2023-07-30T05:38:28;100689.09;;;23.86;33.21
63395;BME280;49531;-34.520;150.798;2023-07-30T05:40:55;100690.44;;;23.88;33.36
63395;BME280;49531;-34.520;150.798;2023-07-30T05:43:22;100688.28;;;23.85;33.18
63395;BME280;49531;-34.520;150.798;2023-07-30T05:45:49;100690.22;;;23.80;33.06
63395;BME280;49531;-34.520;150.798;2023-07-30T05:48:16;100692.63;;;23.86;32.46
63395;BME280;49531;-34.520;150.798;2023-07-30T05:50:43;100686.34;;;23.91;32.05
63395;BME280;49531;-34.520;150.798;2023-07-30T05:53:11;100687.44;;;23.90;32.18
63395;BME280;49531;-34.520;150.798;2023-07-30T05:55:38;100683.34;;;23.87;32.81
63395;BME280;49531;-34.520;150.798;2023-07-30T05:58:05;100686.66;;;23.84;32.70
63395;BME280;49531;-34.520;150.798;2023-07-30T06:00:32;100686.13;;;23.82;32.68
63395;BME280;49531;-34.520;150.798;2023-07-30T06:03:01;100689.41;;;23.79;33.16
63395;BME280;49531;-34.520;150.798;2023-07-30T06:05:29;100701.16;;;23.75;33.11
63395;BME280;49531;-34.520;150.798;2023-07-30T06:07:56;100681.81;;;23.71;32.75
63395;BME280;49531;-34.520;150.798;2023-07-30T06:10:23;100681.28;;;23.69;33.30
63395;BME280;49531;-34.520;150.798;2023-07-30T06:12:50;100690.00;;;23.71;32.76
63395;BME280;49531;-34.520;150.798;2023-07-30T06:15:17;100707.44;;;23.75;33.35
63395;BME280;49531;-34.520;150.798;2023-07-30T06:17:45;100702.53;;;23.72;32.87
63395;BME280;49531;-34.520;150.798;2023-07-30T06:20:12;100703.41;;;23.63;32.80
63395;BME280;49531;-34.520;150.798;2023-07-30T06:22:39;100708.31;;;23.66;32.57
63395;BME280;49531;-34.520;150.798;2023-07-30T06:25:06;100697.94;;;23.68;32.50
63395;BME280;49531;-34.520;150.798;2023-07-30T06:27:33;100719.47;;;23.69;32.19
63395;BME280;49531;-34.520;150.798;2023-07-30T06:30:00;100698.75;;;23.68;31.99
63395;BME280;49531;-34.520;150.798;2023-07-30T06:32:27;100701.22;;;23.65;32.43
63395;BME280;49531;-34.520;150.798;2023-07-30T06:34:55;100696.31;;;23.67;31.88
63395;BME280;49531;-34.520;150.798;2023-07-30T06:37:22;100685.94;;;23.69;31.76
63395;BME280;49531;-34.520;150.798;2023-07-30T06:39:52;100707.47;;;23.70;31.82
63395;BME280;49531;-34.520;150.798;2023-07-30T06:42:19;100686.75;;;23.69;32.18
63395;BME280;49531;-34.520;150.798;2023-07-30T06:44:46;100699.59;;;23.64;32.62
63395;BME280;49531;-34.520;150.798;2023-07-30T06:47:13;100705.84;;;23.64;32.00
63395;BME280;49531;-34.520;150.798;2023-07-30T06:49:40;100710.25;;;23.60;32.76
63395;BME280;49531;-34.520;150.798;2023-07-30T06:52:07;100710.03;;;23.56;32.68
63395;BME280;49531;-34.520;150.798;2023-07-30T06:54:34;100718.75;;;23.53;32.96
63395;BME280;49531;-34.520;150.798;2023-07-30T06:57:01;100705.66;;;23.50;32.33
63395;BME280;49531;-34.520;150.798;2023-07-30T06:59:29;100720.09;;;23.56;32.77
63395;BME280;49531;-34.520;150.798;2023-07-30T07:01:56;100719.56;;;23.54;32.60
63395;BME280;49531;-34.520;150.798;2023-07-30T07:04:24;100731.00;;;23.51;32.74
63395;BME280;49531;-34.520;150.798;2023-07-30T07:06:51;100729.66;;;23.48;32.29
63395;BME280;49531;-34.520;150.798;2023-07-30T07:09:18;100726.13;;;23.43;32.86
63395;BME280;49531;-34.520;150.798;2023-07-30T07:11:45;100733.50;;;23.42;32.81
63395;BME280;49531;-34.520;150.798;2023-07-30T07:14:12;100741.66;;;23.42;33.07
63395;BME280;49531;-34.520;150.798;2023-07-30T07:16:39;100744.69;;;23.36;33.21
63395;BME280;49531;-34.520;150.798;2023-07-30T07:19:06;100746.91;;;23.28;33.03
63395;BME280;49531;-34.520;150.798;2023-07-30T07:21:36;100753.97;;;23.29;33.11
63395;BME280;49531;-34.520;150.798;2023-07-30T07:24:03;100768.13;;;23.37;33.00
63395;BME280;49531;-34.520;150.798;2023-07-30T07:26:30;100762.44;;;23.28;33.04
63395;BME280;49531;-34.520;150.798;2023-07-30T07:28:58;100761.06;;;23.25;33.00
63395;BME280;49531;-34.520;150.798;2023-07-30T07:31:25;100767.59;;;23.29;32.97
63395;BME280;49531;-34.520;150.798;2023-07-30T07:33:55;100767.91;;;23.23;33.18
63395;BME280;49531;-34.520;150.798;2023-07-30T07:36:22;100776.34;;;23.21;33.10
63395;BME280;49531;-34.520;150.798;2023-07-30T07:38:49;100775.59;;;23.11;33.17
63395;BME280;49531;-34.520;150.798;2023-07-30T07:41:17;100782.97;;;23.00;33.65
63395;BME280;49531;-34.520;150.798;2023-07-30T07:43:45;100788.41;;;23.00;33.46
63395;BME280;49531;-34.520;150.798;2023-07-30T07:46:13;100794.66;;;23.01;33.59
63395;BME280;49531;-34.520;150.798;2023-07-30T07:48:41;100791.13;;;23.00;33.35
63395;BME280;49531;-34.520;150.798;2023-07-30T07:51:10;100806.94;;;22.98;33.60
63395;BME280;49531;-34.520;150.798;2023-07-30T07:53:38;100808.03;;;22.97;33.55
63395;BME280;49531;-34.520;150.798;2023-07-30T07:56:05;100818.38;;;23.00;33.73
63395;BME280;49531;-34.520;150.798;2023-07-30T07:58:32;100818.91;;;22.97;33.88
63395;BME280;49531;-34.520;150.798;2023-07-30T08:01:00;100826.53;;;23.00;34.15
63395;BME280;49531;-34.520;150.798;2023-07-30T08:03:27;100832.00;;;22.95;33.91
63395;BME280;49531;-34.520;150.798;2023-07-30T08:05:55;100841.25;;;22.94;33.93
63395;BME280;49531;-34.520;150.798;2023-07-30T08:08:23;100842.34;;;22.93;33.93
63395;BME280;49531;-34.520;150.798;2023-07-30T08:10:51;100851.34;;;22.88;34.18
63395;BME280;49531;-34.520;150.798;2023-07-30T08:13:18;100851.06;;;22.90;33.83
63395;BME280;49531;-34.520;150.798;2023-07-30T08:15:45;100878.84;;;22.87;33.90
63395;BME280;49531;-34.520;150.798;2023-07-30T08:18:14;100857.06;;;22.82;33.41
63395;BME280;49531;-34.520;150.798;2023-07-30T08:20:44;100877.47;;;22.84;33.36
63395;BME280;49531;-34.520;150.798;2023-07-30T08:23:11;100876.94;;;22.82;33.26
63395;BME280;49531;-34.520;150.798;2023-07-30T08:25:38;100866.31;;;22.81;33.12
63395;BME280;49531;-34.520;150.798;2023-07-30T08:28:05;100883.72;;;22.75;32.89
63395;BME280;49531;-34.520;150.798;2023-07-30T08:30:32;100876.91;;;22.67;32.81
63395;BME280;49531;-34.520;150.798;2023-07-30T08:32:59;100881.00;;;22.70;32.29
63395;BME280;49531;-34.520;150.798;2023-07-30T08:35:27;100878.00;;;22.61;31.97
63395;BME280;49531;-34.520;150.798;2023-07-30T08:37:54;100887.53;;;22.63;32.27
63395;BME280;49531;-34.520;150.798;2023-07-30T08:40:22;100893.50;;;22.60;32.06
63395;BME280;49531;-34.520;150.798;2023-07-30T08:42:51;100904.13;;;22.57;32.12
63395;BME280;49531;-34.520;150.798;2023-07-30T08:45:19;100889.41;;;22.53;32.11
63395;BME280;49531;-34.520;150.798;2023-07-30T08:47:47;100893.75;;;22.54;31.81
63395;BME280;49531;-34.520;150.798;2023-07-30T08:50:14;100900.84;;;22.60;31.92
63395;BME280;49531;-34.520;150.798;2023-07-30T08:52:42;100917.44;;;22.53;32.11
63395;BME280;49531;-34.520;150.798;2023-07-30T08:55:10;100918.25;;;22.49;31.96
63395;BME280;49531;-34.520;150.798;2023-07-30T08:57:39;100901.91;;;22.44;32.16
63395;BME280;49531;-34.520;150.798;2023-07-30T09:00:09;100908.19;;;22.39;32.23
63395;BME280;49531;-34.520;150.798;2023-07-30T09:02:46;100919.06;;;22.39;32.04
63395;BME280;49531;-34.520;150.798;2023-07-30T09:05:14;100916.34;;;22.39;32.29
63395;BME280;49531;-34.520;150.798;2023-07-30T09:07:42;100921.78;;;22.34;32.30
63395;BME280;49531;-34.520;150.798;2023-07-30T09:10:09;100931.03;;;22.38;32.45
63395;BME280;49531;-34.520;150.798;2023-07-30T09:12:36;100914.97;;;22.37;32.25
63395;BME280;49531;-34.520;150.798;2023-07-30T09:15:05;100922.31;;;22.31;32.32
63395;BME280;49531;-34.520;150.798;2023-07-30T09:17:33;100920.66;;;22.30;32.69
63395;BME280;49531;-34.520;150.798;2023-07-30T09:20:01;100928.84;;;22.30;32.81
63395;BME280;49531;-34.520;150.798;2023-07-30T09:22:32;100927.75;;;22.31;32.76
63395;BME280;49531;-34.520;150.798;2023-07-30T09:25:02;100922.84;;;22.28;32.87
63395;BME280;49531;-34.520;150.798;2023-07-30T09:27:29;100942.16;;;22.26;32.42
63395;BME280;49531;-34.520;150.798;2023-07-30T09:29:59;100938.88;;;22.24;33.07
63395;BME280;49531;-34.520;150.798;2023-07-30T09:32:29;100933.69;;;22.18;32.53
63395;BME280;49531;-34.520;150.798;2023-07-30T09:35:06;100948.91;;;22.14;33.05
63395;BME280;49531;-34.520;150.798;2023-07-30T09:37:37;100938.56;;;22.16;33.14
63395;BME280;49531;-34.520;150.798;2023-07-30T09:40:07;100929.03;;;22.13;33.04
63395;BME280;49531;-34.520;150.798;2023-07-30T09:42:35;100942.41;;;22.20;33.10
63395;BME280;49531;-34.520;150.798;2023-07-30T09:45:07;100938.31;;;22.17;33.03
63395;BME280;49531;-34.520;150.798;2023-07-30T09:47:37;100941.56;;;22.14;32.99
63395;BME280;49531;-34.520;150.798;2023-07-30T09:50:04;100948.34;;;22.12;33.20
63395;BME280;49531;-34.520;150.798;2023-07-30T09:52:32;100932.78;;;22.02;33.00
63395;BME280;49531;-34.520;150.798;2023-07-30T09:54:59;100943.91;;;21.95;33.25
63395;BME280;49531;-34.520;150.798;2023-07-30T09:57:27;100938.47;;;21.95;33.06
63395;BME280;49531;-34.520;150.798;2023-07-30T09:59:54;100936.28;;;21.92;33.15
63395;BME280;49531;-34.520;150.798;2023-07-30T10:02:21;100930.28;;;21.90;33.23
63395;BME280;49531;-34.520;150.798;2023-07-30T10:04:50;100925.63;;;21.86;33.25
63395;BME280;49531;-34.520;150.798;2023-07-30T10:07:20;100933.22;;;21.84;33.42
63395;BME280;49531;-34.520;150.798;2023-07-30T10:09:51;100934.88;;;21.85;33.50
63395;BME280;49531;-34.520;150.798;2023-07-30T10:12:27;100926.44;;;21.86;33.54
63395;BME280;49531;-34.520;150.798;2023-07-30T10:14:56;100932.66;;;21.82;33.55
63395;BME280;49531;-34.520;150.798;2023-07-30T10:17:24;100938.06;;;21.77;33.62
63395;BME280;49531;-34.520;150.798;2023-07-30T10:19:54;100950.84;;;21.76;33.73
63395;BME280;49531;-34.520;150.798;2023-07-30T10:22:23;100944.03;;;21.74;33.76
63395;BME280;49531;-34.520;150.798;2023-07-30T10:24:57;100942.66;;;21.71;33.78
63395;BME280;49531;-34.520;150.798;2023-07-30T10:27:26;100946.47;;;21.70;34.00
63395;BME280;49531;-34.520;150.798;2023-07-30T10:30:13;100954.34;;;21.72;33.80
63395;BME280;49531;-34.520;150.798;2023-07-30T10:32:58;100953.25;;;21.68;34.07
63395;BME280;49531;-34.520;150.798;2023-07-30T10:35:43;100954.31;;;21.67;34.17
63395;BME280;49531;-34.520;150.798;2023-07-30T10:38:18;100958.94;;;21.66;34.24
63395;BME280;49531;-34.520;150.798;2023-07-30T10:41:09;100954.53;;;21.60;34.30
63395;BME280;49531;-34.520;150.798;2023-07-30T10:43:40;100962.69;;;21.55;34.39
63395;BME280;49531;-34.520;150.798;2023-07-30T10:46:13;100968.13;;;21.55;34.40
63395;BME280;49531;-34.520;150.798;2023-07-30T10:48:41;100956.75;;;21.58;34.48
63395;BME280;49531;-34.520;150.798;2023-07-30T10:51:10;100968.13;;;21.55;34.57
63395;BME280;49531;-34.520;150.798;2023-07-30T10:53:37;100950.16;;;21.49;34.60
63395;BME280;49531;-34.520;150.798;2023-07-30T10:56:06;100952.03;;;21.48;34.73
63395;BME280;49531;-34.520;150.798;2023-07-30T10:58:35;100965.97;;;21.57;34.62
63395;BME280;49531;-34.520;150.798;2023-07-30T11:01:03;100971.41;;;21.57;34.75
63395;BME280;49531;-34.520;150.798;2023-07-30T11:03:31;100976.81;;;21.52;34.81
63395;BME280;49531;-34.520;150.798;2023-07-30T11:06:00;100975.69;;;21.48;34.90
63395;BME280;49531;-34.520;150.798;2023-07-30T11:08:37;100971.31;;;21.47;35.00
63395;BME280;49531;-34.520;150.798;2023-07-30T11:11:06;100971.59;;;21.45;35.10
63395;BME280;49531;-34.520;150.798;2023-07-30T11:13:40;100953.94;;;21.48;34.96
63395;BME280;49531;-34.520;150.798;2023-07-30T11:16:09;100962.00;;;21.38;35.14
63395;BME280;49531;-34.520;150.798;2023-07-30T11:18:37;100972.88;;;21.38;35.27
63395;BME280;49531;-34.520;150.798;2023-07-30T11:21:12;100967.41;;;21.33;35.25
63395;BME280;49531;-34.520;150.798;2023-07-30T11:23:43;100959.78;;;21.29;35.21
63395;BME280;49531;-34.520;150.798;2023-07-30T11:26:17;100954.06;;;21.31;35.28
63395;BME280;49531;-34.520;150.798;2023-07-30T11:28:46;100954.84;;;21.26;35.33
63395;BME280;49531;-34.520;150.798;2023-07-30T11:31:16;100953.78;;;21.27;35.25
63395;BME280;49531;-34.520;150.798;2023-07-30T11:33:45;100945.59;;;21.22;35.42
63395;BME280;49531;-34.520;150.798;2023-07-30T11:36:16;100948.56;;;21.21;35.45
63395;BME280;49531;-34.520;150.798;2023-07-30T11:38:45;100945.00;;;21.20;35.65
63395;BME280;49531;-34.520;150.798;2023-07-30T11:41:14;100958.88;;;21.19;35.70
63395;BME280;49531;-34.520;150.798;2023-07-30T11:43:43;100952.31;;;21.20;35.65
63395;BME280;49531;-34.520;150.798;2023-07-30T11:46:14;100955.28;;;21.13;35.72
63395;BME280;49531;-34.520;150.798;2023-07-30T11:48:43;100955.28;;;21.13;35.79
63395;BME280;49531;-34.520;150.798;2023-07-30T11:53:54;100951.38;;;21.04;35.92
63395;BME280;49531;-34.520;150.798;2023-07-30T11:56:26;100949.25;;;21.06;36.04
63395;BME280;49531;-34.520;150.798;2023-07-30T11:58:57;100937.81;;;21.04;36.12
63395;BME280;49531;-34.520;150.798;2023-07-30T12:01:26;100949.75;;;21.03;36.24
63395;BME280;49531;-34.520;150.798;2023-07-30T12:03:56;100949.19;;;21.01;36.20
63395;BME280;49531;-34.520;150.798;2023-07-30T12:06:37;100944.84;;;21.00;36.18
63395;BME280;49531;-34.520;150.798;2023-07-30T12:09:15;100955.69;;;21.00;36.29
63395;BME280;49531;-34.520;150.798;2023-07-30T12:11:56;100944.28;;;20.98;36.31
63395;BME280;49531;-34.520;150.798;2023-07-30T12:14:28;100951.84;;;20.96;36.40
63395;BME280;49531;-34.520;150.798;2023-07-30T12:16:56;100954.56;;;20.96;36.55
63395;BME280;49531;-34.520;150.798;2023-07-30T12:19:23;100956.72;;;20.94;36.68
63395;BME280;49531;-34.520;150.798;2023-07-30T12:21:50;100946.38;;;20.91;36.79
63395;BME280;49531;-34.520;150.798;2023-07-30T12:24:17;100956.94;;;20.87;36.82
63395;BME280;49531;-34.520;150.798;2023-07-30T12:26:44;100958.00;;;20.86;36.89
63395;BME280;49531;-34.520;150.798;2023-07-30T12:29:11;100960.41;;;20.83;36.97